Terminal Aerodrome Forecast
Issued by NWS

Home | Current Version | Previous Version | Text Only | Print | Product List | Glossary On
Versions: 1 2 3 4 5 6 7 8 9 10 11 12 13 14 15 16 17
000
FTUS44 KLIX 281729
TAFMCB
TAF
KMCB 281729Z 2818/2918 05006KT P6SM SCT040 BKN090
     FM282300 VRB05KT P6SM SCT050 BKN150
     FM290600 VRB03KT P6SM BKN015
     FM290800 00000KT 4SM BR BKN010
      TEMPO 2909/2913 2SM BR
     FM291400 VRB05KT P6SM BKN025 PROB30 2915/2918 3SM -TSRA
      BKN018CB=

USA.gov is the U.S. government's official web portal to all federal, state and local government web resources and services.